createdAt,value
2022-12-11T00:00:18.905Z,85.81
2022-12-11T00:03:14.194Z,85.94
2022-12-11T00:05:46.888Z,86.16
2022-12-11T00:08:16.635Z,85.96
2022-12-11T00:10:50.790Z,86.10
2022-12-11T00:13:21.372Z,86.00
2022-12-11T00:15:51.668Z,86.40
2022-12-11T00:18:22.029Z,86.20
2022-12-11T00:20:52.859Z,86.44
2022-12-11T00:23:23.426Z,86.46
2022-12-11T00:25:53.311Z,86.43
2022-12-11T00:28:25.701Z,86.69
2022-12-11T00:30:56.129Z,86.87
2022-12-11T00:33:27.948Z,87.16
2022-12-11T00:35:58.389Z,87.13
2022-12-11T00:38:29.116Z,87.14
2022-12-11T00:41:01.894Z,87.17
2022-12-11T00:43:31.862Z,87.20
2022-12-11T00:46:02.486Z,87.17
2022-12-11T00:48:32.852Z,87.06
2022-12-11T00:51:03.304Z,86.98
2022-12-11T00:53:33.517Z,87.43
2022-12-11T00:56:10.956Z,86.94
2022-12-11T00:58:41.400Z,86.94
2022-12-11T01:01:14.878Z,86.94
2022-12-11T01:03:44.453Z,86.98
2022-12-11T01:06:18.828Z,87.05
2022-12-11T01:08:49.235Z,87.06
2022-12-11T01:11:21.287Z,86.88
2022-12-11T01:13:50.344Z,87.03
2022-12-11T01:16:20.409Z,87.16
2022-12-11T01:18:50.544Z,87.10
2022-12-11T01:21:20.401Z,87.57
2022-12-11T01:23:52.457Z,87.11
2022-12-11T01:26:23.924Z,87.29
2022-12-11T01:28:54.018Z,87.36
2022-12-11T01:31:23.684Z,87.31
2022-12-11T01:33:56.061Z,87.43
2022-12-11T01:36:26.084Z,87.31
2022-12-11T01:38:56.789Z,87.19
2022-12-11T01:41:26.297Z,87.36
2022-12-11T01:44:07.438Z,88.02
2022-12-11T01:46:37.905Z,89.93
2022-12-11T01:49:15.888Z,90.89
2022-12-11T01:51:59.874Z,91.62
2022-12-11T01:54:30.691Z,91.36
2022-12-11T01:57:06.806Z,91.60
2022-12-11T01:59:40.653Z,91.09
2022-12-11T02:02:19.890Z,90.98
2022-12-11T02:04:50.305Z,90.45
2022-12-11T02:07:20.842Z,90.33
2022-12-11T02:09:50.842Z,90.25
2022-12-11T02:12:38.557Z,90.13
2022-12-11T02:15:29.019Z,90.16
2022-12-11T02:18:20.447Z,90.04
2022-12-11T02:21:03.843Z,89.79
2022-12-11T02:23:57.150Z,89.88
2022-12-11T02:26:50.592Z,89.80
2022-12-11T02:29:50.826Z,89.64
2022-12-11T02:32:26.690Z,89.61
2022-12-11T02:35:15.132Z,89.67
2022-12-11T02:37:48.518Z,89.84
2022-12-11T02:40:25.586Z,89.70
2022-12-11T02:42:58.627Z,89.62
2022-12-11T02:45:30.554Z,89.84
2022-12-11T02:48:04.528Z,89.51
2022-12-11T02:50:39.300Z,89.71
2022-12-11T02:53:13.852Z,90.04
2022-12-11T02:55:46.161Z,90.37
2022-12-11T02:58:21.466Z,90.17
2022-12-11T03:00:51.980Z,90.57
2022-12-11T03:03:22.525Z,90.49
2022-12-11T03:05:52.346Z,90.74
2022-12-11T03:08:22.884Z,90.28
2022-12-11T03:10:52.962Z,90.41
2022-12-11T03:13:23.801Z,89.87
2022-12-11T03:16:09.707Z,89.98
2022-12-11T03:19:03.323Z,89.94
2022-12-11T03:21:39.360Z,90.09
2022-12-11T03:24:31.055Z,90.31
2022-12-11T03:27:11.247Z,90.30
2022-12-11T03:29:48.612Z,90.49
2022-12-11T03:32:25.423Z,91.05
2022-12-11T03:35:02.517Z,90.52
2022-12-11T03:37:36.877Z,90.57
2022-12-11T03:40:17.416Z,90.74
2022-12-11T03:42:53.074Z,90.69
2022-12-11T03:45:28.311Z,90.74
2022-12-11T03:48:00.509Z,90.65
2022-12-11T03:50:33.084Z,90.49
2022-12-11T03:53:04.574Z,90.46
2022-12-11T03:55:38.640Z,90.24
2022-12-11T03:58:15.865Z,90.15
2022-12-11T04:00:46.462Z,89.47
2022-12-11T04:03:18.314Z,89.77
2022-12-11T04:05:51.470Z,89.80
2022-12-11T04:08:23.286Z,89.90
2022-12-11T04:11:13.117Z,89.84
2022-12-11T04:13:43.138Z,89.56
2022-12-11T04:16:13.113Z,89.45
2022-12-11T04:19:02.907Z,89.62
2022-12-11T04:21:52.697Z,89.35
2022-12-11T04:24:23.388Z,89.02
2022-12-11T04:26:53.570Z,89.24
2022-12-11T04:29:23.232Z,89.00
2022-12-11T04:31:52.950Z,89.35
2022-12-11T04:34:22.697Z,89.44
2022-12-11T04:36:53.001Z,89.31
2022-12-11T04:39:22.685Z,89.23
2022-12-11T04:41:52.886Z,89.46
2022-12-11T04:44:22.524Z,89.42
2022-12-11T04:46:52.929Z,89.35
2022-12-11T04:49:22.766Z,89.33
2022-12-11T04:51:52.932Z,89.55
2022-12-11T04:54:23.229Z,89.49
2022-12-11T04:56:52.843Z,89.62
2022-12-11T04:59:23.124Z,89.17
2022-12-11T05:01:52.955Z,88.96
2022-12-11T05:04:22.384Z,88.97
2022-12-11T05:06:52.444Z,88.77
2022-12-11T05:09:22.104Z,88.86
2022-12-11T05:11:53.234Z,88.61
2022-12-11T05:14:23.275Z,88.83
2022-12-11T05:16:53.000Z,88.35
2022-12-11T05:19:22.640Z,88.92
2022-12-11T05:21:51.860Z,88.72
2022-12-11T05:24:22.326Z,88.42
2022-12-11T05:26:52.489Z,89.13
2022-12-11T05:29:22.176Z,89.10
2022-12-11T05:31:52.443Z,89.37
2022-12-11T05:34:22.634Z,88.88
2022-12-11T05:36:52.810Z,89.20
2022-12-11T05:39:22.488Z,89.04
2022-12-11T05:41:52.708Z,88.81
2022-12-11T05:44:22.427Z,88.81
2022-12-11T05:46:52.123Z,89.59
2022-12-11T05:49:29.018Z,89.45
2022-12-11T05:52:03.271Z,89.16
2022-12-11T05:54:34.082Z,90.10
2022-12-11T05:57:03.816Z,90.56
2022-12-11T05:59:33.546Z,90.85
2022-12-11T06:02:03.883Z,90.46
2022-12-11T06:04:34.287Z,90.11
2022-12-11T06:07:04.193Z,89.67
2022-12-11T06:09:34.321Z,86.56
2022-12-11T06:12:04.669Z,84.62
2022-12-11T06:14:34.299Z,82.88
2022-12-11T06:17:04.018Z,79.30
2022-12-11T06:19:37.030Z,77.99
2022-12-11T06:22:07.573Z,77.01
2022-12-11T06:24:37.786Z,77.35
2022-12-11T06:27:07.635Z,76.32
2022-12-11T06:29:38.022Z,75.27
2022-12-11T06:32:07.633Z,75.00
2022-12-11T06:34:37.374Z,73.54
2022-12-11T06:37:07.752Z,70.08
2022-12-11T06:39:37.820Z,69.04
2022-12-11T06:42:07.390Z,68.37
2022-12-11T06:44:37.115Z,67.96
2022-12-11T06:47:06.825Z,69.13
2022-12-11T06:49:36.938Z,68.78
2022-12-11T06:52:09.377Z,68.62
2022-12-11T06:54:42.212Z,66.31
2022-12-11T06:57:12.633Z,66.66
2022-12-11T06:59:43.376Z,67.58
2022-12-11T07:02:15.322Z,67.02
2022-12-11T07:04:45.173Z,66.30
2022-12-11T07:07:15.217Z,64.46
2022-12-11T07:09:45.436Z,65.82
2022-12-11T07:12:15.625Z,65.57
2022-12-11T07:14:46.229Z,63.42
2022-12-11T07:17:16.471Z,65.06
2022-12-11T07:19:45.338Z,64.43
2022-12-11T07:22:17.835Z,64.20
2022-12-11T07:24:48.222Z,64.27
2022-12-11T07:27:18.270Z,63.79
2022-12-11T07:29:47.806Z,61.86
2022-12-11T07:32:18.515Z,61.45
2022-12-11T07:34:52.100Z,61.74
2022-12-11T07:37:23.784Z,61.52
2022-12-11T07:39:54.299Z,62.05
2022-12-11T07:42:24.800Z,62.35
2022-12-11T07:44:54.875Z,62.51
2022-12-11T07:47:24.953Z,63.12
2022-12-11T07:49:54.815Z,62.91
2022-12-11T07:52:25.223Z,63.17
2022-12-11T07:54:56.192Z,62.89
2022-12-11T07:57:26.605Z,63.37
2022-12-11T07:59:56.720Z,62.14
2022-12-11T08:02:30.239Z,63.12
2022-12-11T08:05:03.304Z,63.31
2022-12-11T08:07:36.204Z,63.94
2022-12-11T08:10:07.300Z,62.19
2022-12-11T08:12:37.662Z,62.06
2022-12-11T08:15:08.845Z,61.75
2022-12-11T08:17:40.330Z,62.32
2022-12-11T08:20:10.383Z,62.89
2022-12-11T08:22:40.445Z,63.82
2022-12-11T08:25:11.283Z,63.52
2022-12-11T08:27:41.669Z,63.51
2022-12-11T08:30:12.201Z,64.01
2022-12-11T08:32:42.972Z,64.06
2022-12-11T08:35:12.957Z,64.29
2022-12-11T08:37:43.270Z,63.41
2022-12-11T08:40:13.796Z,63.63
2022-12-11T08:42:45.419Z,63.70
2022-12-11T08:45:15.567Z,64.44
2022-12-11T08:47:45.180Z,63.68
2022-12-11T08:50:14.169Z,63.44
2022-12-11T08:52:44.662Z,63.66
2022-12-11T08:55:14.645Z,63.71
2022-12-11T08:57:44.664Z,63.46
2022-12-11T09:00:16.009Z,64.06
2022-12-11T09:02:46.488Z,64.73
2022-12-11T09:05:20.168Z,64.74
2022-12-11T09:07:52.888Z,64.37
2022-12-11T09:10:23.037Z,64.02
2022-12-11T09:12:53.659Z,64.11
2022-12-11T09:15:23.232Z,63.41
2022-12-11T09:17:53.676Z,62.76
2022-12-11T09:20:23.277Z,63.26
2022-12-11T09:22:53.646Z,63.23
2022-12-11T09:25:25.868Z,61.93
2022-12-11T09:27:56.347Z,61.25
2022-12-11T09:30:27.380Z,60.30
2022-12-11T09:32:57.840Z,60.60
2022-12-11T09:35:28.323Z,61.06
2022-12-11T09:37:58.732Z,60.38
2022-12-11T09:40:29.291Z,60.59
2022-12-11T09:43:04.766Z,59.07
2022-12-11T09:45:34.554Z,59.42
2022-12-11T09:48:04.610Z,60.00
2022-12-11T09:50:35.488Z,59.46
2022-12-11T09:53:29.781Z,59.89
2022-12-11T09:56:26.415Z,58.70
2022-12-11T09:59:17.305Z,57.96
2022-12-11T10:02:16.029Z,58.55
2022-12-11T10:05:05.182Z,58.46
2022-12-11T10:08:01.507Z,59.07
2022-12-11T10:10:58.943Z,58.11
2022-12-11T10:13:55.045Z,58.51
2022-12-11T10:16:33.133Z,60.94
2022-12-11T10:19:04.320Z,62.18
2022-12-11T10:21:42.946Z,62.72
2022-12-11T10:25:09.285Z,63.04
2022-12-11T10:27:34.902Z,63.40
2022-12-11T10:30:20.645Z,63.53
2022-12-11T10:32:58.832Z,63.96
2022-12-11T10:35:31.598Z,63.99
2022-12-11T10:38:35.045Z,64.62
2022-12-11T10:41:15.074Z,64.17
2022-12-11T10:43:47.766Z,64.10
2022-12-11T10:46:24.301Z,64.22
2022-12-11T10:49:00.176Z,64.74
2022-12-11T10:51:32.939Z,65.13
2022-12-11T10:54:09.221Z,65.26
2022-12-11T10:56:38.996Z,64.37
2022-12-11T10:59:34.750Z,64.66
2022-12-11T11:02:07.394Z,64.74
2022-12-11T11:04:42.567Z,63.42
2022-12-11T11:07:22.761Z,61.51
2022-12-11T11:10:15.113Z,61.06
2022-12-11T11:12:50.728Z,60.57
2022-12-11T11:15:28.182Z,59.32
2022-12-11T11:18:10.727Z,58.94
2022-12-11T11:20:48.494Z,57.96
2022-12-11T11:23:22.319Z,57.25
2022-12-11T11:26:06.960Z,56.30
2022-12-11T11:28:41.385Z,55.85
2022-12-11T11:31:17.510Z,55.52
2022-12-11T11:34:08.407Z,53.69
2022-12-11T11:36:39.320Z,52.98
2022-12-11T11:39:27.749Z,52.43
2022-12-11T11:42:28.762Z,52.93
2022-12-11T11:45:17.243Z,53.14
2022-12-11T11:48:13.881Z,52.46
2022-12-11T11:50:50.873Z,52.09
2022-12-11T11:53:41.962Z,52.72
2022-12-11T11:56:38.718Z,53.45
2022-12-11T11:59:12.467Z,52.24
2022-12-11T12:01:43.665Z,52.21
2022-12-11T12:04:14.372Z,53.24
2022-12-11T12:07:05.215Z,52.50
2022-12-11T12:10:17.304Z,54.02
2022-12-11T12:13:23.874Z,55.67
2022-12-11T12:16:02.179Z,55.10
2022-12-11T12:18:40.609Z,54.46
2022-12-11T12:21:42.566Z,54.41
2022-12-11T12:24:19.270Z,55.02
2022-12-11T12:26:59.083Z,53.94
2022-12-11T12:30:04.872Z,54.36
2022-12-11T12:33:12.722Z,54.31
2022-12-11T12:36:07.006Z,53.73
2022-12-11T12:38:43.870Z,53.89
2022-12-11T12:41:19.960Z,54.11
2022-12-11T12:44:14.718Z,54.46
2022-12-11T12:47:09.306Z,55.06
2022-12-11T12:49:51.562Z,55.78
2022-12-11T12:52:36.956Z,55.25
2022-12-11T12:55:23.543Z,55.84
2022-12-11T12:58:01.736Z,57.30
2022-12-11T13:00:42.452Z,58.63
2022-12-11T13:03:22.289Z,60.05
2022-12-11T13:06:04.479Z,60.74
2022-12-11T13:08:43.746Z,61.18
2022-12-11T13:11:15.600Z,61.52
2022-12-11T13:14:02.046Z,62.04
2022-12-11T13:16:40.704Z,61.93
2022-12-11T13:19:23.730Z,62.21
2022-12-11T13:22:18.965Z,62.25
2022-12-11T13:24:53.450Z,62.51
2022-12-11T13:27:40.025Z,62.49
2022-12-11T13:30:17.166Z,62.65
2022-12-11T13:33:15.330Z,63.05
2022-12-11T13:35:45.992Z,63.48
2022-12-11T13:38:21.561Z,63.59
2022-12-11T13:40:58.142Z,63.86
2022-12-11T13:43:31.565Z,64.45
2022-12-11T13:46:08.733Z,64.25
2022-12-11T13:49:01.987Z,64.00
2022-12-11T13:51:35.610Z,63.83
2022-12-11T13:54:17.277Z,63.49
2022-12-11T13:57:09.917Z,63.92
2022-12-11T13:59:47.227Z,63.64
2022-12-11T14:02:40.538Z,63.42
2022-12-11T14:05:13.110Z,63.54
2022-12-11T14:07:55.807Z,63.58
2022-12-11T14:10:32.314Z,64.06
2022-12-11T14:13:07.505Z,64.53
2022-12-11T14:15:37.564Z,65.33
2022-12-11T14:18:07.780Z,65.48
2022-12-11T14:20:38.338Z,65.96
2022-12-11T14:23:10.028Z,66.27
2022-12-11T14:25:39.708Z,66.64
2022-12-11T14:28:18.614Z,66.99
2022-12-11T14:30:52.115Z,67.41
2022-12-11T14:33:26.543Z,68.13
2022-12-11T14:35:58.293Z,68.35
2022-12-11T14:38:44.138Z,68.42
2022-12-11T14:41:25.024Z,68.82
2022-12-11T14:44:04.456Z,68.65
2022-12-11T14:46:45.254Z,68.99
2022-12-11T14:49:29.953Z,68.98
2022-12-11T14:52:01.894Z,69.42
2022-12-11T14:54:40.062Z,69.89
2022-12-11T14:57:14.651Z,69.48
2022-12-11T14:59:50.903Z,69.83
2022-12-11T15:02:25.327Z,70.01
2022-12-11T15:05:06.395Z,70.36
2022-12-11T15:07:37.835Z,70.63
2022-12-11T15:10:07.911Z,70.39
2022-12-11T15:12:45.780Z,70.46
2022-12-11T15:15:17.462Z,70.49
2022-12-11T15:17:52.880Z,70.76
2022-12-11T15:20:28.087Z,70.95
2022-12-11T15:23:02.006Z,70.98
2022-12-11T15:25:33.015Z,71.09
2022-12-11T15:28:03.197Z,71.48
2022-12-11T15:30:35.560Z,71.57
